Terminal Aerodrome Forecast
Issued by NWS

Home | Current Version | Previous Version | Text Only | Print | Product List | Glossary On
Versions: 1 2 3 4 5 6 7 8 9 10 11 12 13 14 15 16 17
408
FTUS46 KPDT 240203 AAA
TAFRDM
TAF AMD
KRDM 240203Z 2402/2424 34008KT P6SM SKC
     FM240500 VRB05KT P6SM SKC
     FM242100 35009KT P6SM SKC=

USA.gov is the U.S. government's official web portal to all federal, state and local government web resources and services.